createdAt,value
2019-06-20T00:11:04.807Z,17.8
2019-06-20T00:23:04.803Z,17.8
2019-06-20T00:35:04.794Z,18.0
2019-06-20T00:47:05.263Z,17.9
2019-06-20T00:59:04.746Z,18.1
2019-06-20T01:11:04.829Z,18.2
2019-06-20T01:23:04.826Z,18.2
2019-06-20T01:35:04.840Z,18.3
2019-06-20T01:47:04.835Z,18.4
2019-06-20T01:59:04.818Z,18.3
2019-06-20T02:11:04.793Z,18.4
2019-06-20T02:23:04.808Z,18.3
2019-06-20T02:35:04.791Z,18.0
2019-06-20T02:47:04.829Z,17.9
2019-06-20T02:59:04.774Z,17.9
2019-06-20T03:11:04.767Z,17.8
2019-06-20T03:23:04.806Z,17.9
2019-06-20T03:35:04.775Z,17.6
2019-06-20T03:47:04.838Z,17.4
2019-06-20T03:59:04.779Z,17.1
2019-06-20T04:11:04.787Z,17.0
2019-06-20T04:23:04.784Z,17.0
2019-06-20T04:35:05.284Z,17.4
2019-06-20T04:47:04.782Z,17.6
2019-06-20T04:59:04.817Z,17.5
2019-06-20T05:11:04.792Z,17.7
2019-06-20T05:23:04.772Z,17.8
2019-06-20T05:35:04.779Z,18.0
2019-06-20T05:47:12.227Z,18.8
2019-06-20T05:59:04.866Z,18.9
2019-06-20T06:11:04.817Z,19.7
2019-06-20T06:23:04.778Z,19.3
2019-06-20T06:35:04.750Z,18.6
2019-06-20T06:47:04.831Z,19.2
2019-06-20T06:59:04.813Z,20.3
2019-06-20T07:11:04.866Z,20.3
2019-06-20T07:23:04.811Z,21.0
2019-06-20T07:35:04.775Z,22.1
2019-06-20T07:47:17.148Z,23.4
2019-06-20T07:59:04.874Z,21.5
2019-06-20T08:11:04.793Z,22.1
2019-06-20T08:23:04.785Z,21.6
2019-06-20T08:35:04.722Z,22.9
2019-06-20T08:47:05.866Z,21.6
2019-06-20T08:59:04.941Z,22.2
2019-06-20T09:11:04.806Z,21.6
2019-06-20T09:23:04.781Z,22.3
2019-06-20T09:35:04.768Z,22.3
2019-06-20T09:47:04.791Z,22.3
2019-06-20T09:59:04.768Z,23.0
2019-06-20T10:11:04.766Z,23.6
2019-06-20T10:23:04.773Z,23.7
2019-06-20T15:23:04.828Z,19.5
2019-06-20T15:35:04.801Z,19.2
2019-06-20T15:47:04.779Z,19.3
2019-06-20T15:59:04.798Z,18.8
2019-06-20T16:11:04.823Z,19.4
2019-06-20T16:23:04.785Z,19.5
2019-06-20T16:35:04.806Z,18.9
2019-06-20T16:47:04.787Z,18.5
2019-06-20T16:59:04.881Z,17.3
2019-06-20T17:11:04.786Z,17.0
2019-06-20T17:23:04.787Z,16.8
2019-06-20T17:35:04.775Z,17.3
2019-06-20T17:47:04.780Z,17.0
2019-06-20T17:59:04.839Z,17.5
2019-06-20T18:11:04.881Z,17.5
2019-06-20T18:23:04.808Z,17.3
2019-06-20T18:35:04.787Z,17.0
2019-06-20T18:47:05.266Z,17.5
2019-06-20T18:59:04.784Z,17.1
2019-06-20T19:11:04.777Z,17.0
2019-06-20T19:23:04.807Z,16.6
2019-06-20T19:35:04.884Z,16.7
2019-06-20T19:47:04.885Z,16.5
2019-06-20T19:59:04.903Z,16.2
2019-06-20T20:11:04.997Z,16.1
2019-06-20T20:23:04.962Z,16.1
2019-06-20T20:35:04.762Z,15.8
2019-06-20T20:47:04.802Z,15.6
2019-06-20T20:59:04.827Z,15.2
2019-06-20T21:11:04.800Z,15.3
2019-06-20T21:23:04.825Z,15.3
2019-06-20T21:35:04.789Z,15.3
2019-06-20T21:47:04.783Z,15.5
2019-06-20T21:59:04.859Z,15.4
2019-06-20T22:11:04.771Z,15.6
2019-06-20T22:23:04.800Z,15.7
2019-06-20T22:35:04.781Z,15.1
2019-06-20T22:47:04.753Z,14.9
2019-06-20T22:59:05.004Z,15.1
2019-06-20T23:11:04.804Z,15.2
2019-06-20T23:23:04.788Z,15.0
2019-06-20T23:35:04.782Z,14.9
2019-06-20T23:47:04.803Z,14.8
2019-06-20T23:59:04.825Z,14.1
